Time;durP1;ratioP1;P1;durP2;ratioP2;P2;SDS_P1;SDS_P2;PMS_P1;PMS_P2;Temp;Humidity;BMP_temperature;BMP_pressure;BME280_temperature;BME280_humidity;BME280_pressure;Samples;Min_cycle;Max_cycle;Signal;HPM_P1;HPM_P2
2021/04/08 00:02:24;;;;;;;19.10;5.25;;;1.60;99.90;;;2.23;87.81;101173.47;5001984;28;20065;-85
2021/04/08 00:04:50;;;;;;;22.17;6.20;;;1.50;99.90;;;2.21;87.68;101174.88;5002688;28;20053;-87
2021/04/08 00:07:16;;;;;;;14.60;4.82;;;1.50;99.90;;;2.29;88.13;101174.25;5024461;28;20034;-83
2021/04/08 00:09:43;;;;;;;14.35;5.10;;;1.50;99.90;;;2.38;87.59;101175.25;5014678;28;20038;-85
2021/04/08 00:12:09;;;;;;;13.95;4.60;;;1.50;99.90;;;2.37;87.65;101176.38;5022795;28;20105;-86
2021/04/08 00:14:35;;;;;;;15.80;5.03;;;1.50;99.90;;;2.36;87.37;101185.75;5000841;28;20081;-89
2021/04/08 00:17:02;;;;;;;19.23;5.43;;;1.50;99.90;;;2.11;88.49;101179.38;5011752;28;20026;-87
2021/04/08 00:19:28;;;;;;;11.10;4.65;;;1.50;99.90;;;2.25;88.50;101187.78;4995617;28;20038;-85
2021/04/08 00:21:54;;;;;;;16.13;5.20;;;1.50;99.90;;;2.35;88.10;101198.72;5016708;28;20119;-85
2021/04/08 00:24:21;;;;;;;13.40;5.80;;;1.50;99.90;;;2.41;87.77;101202.25;5016350;28;20224;-88
2021/04/08 00:26:47;;;;;;;12.38;5.47;;;1.50;99.90;;;2.33;87.69;101205.63;5030803;28;20044;-85
2021/04/08 00:29:13;;;;;;;13.35;5.47;;;1.50;99.90;;;2.23;87.97;101198.28;5015522;28;20482;-86
2021/04/08 00:31:39;;;;;;;17.92;6.72;;;1.40;99.90;;;2.18;88.21;101201.09;5012648;28;20026;-86
2021/04/08 00:34:05;;;;;;;12.52;5.88;;;1.40;99.90;;;2.12;88.73;101197.53;5004823;28;20025;-87
2021/04/08 00:36:31;;;;;;;22.27;6.28;;;1.30;99.90;;;2.04;89.00;101198.19;4997762;28;20474;-86
2021/04/08 00:38:57;;;;;;;13.32;6.10;;;1.30;99.90;;;2.07;89.18;101208.63;5000371;28;20038;-85
2021/04/08 00:41:24;;;;;;;22.83;6.57;;;1.30;99.90;;;2.09;88.62;101197.28;5006716;28;20490;-85
2021/04/08 00:43:51;;;;;;;18.85;6.75;;;1.30;99.90;;;1.88;89.21;101206.84;5026107;28;20128;-87
2021/04/08 00:46:16;;;;;;;16.60;6.35;;;1.20;99.90;;;1.78;89.87;101202.22;5034316;28;20081;-85
2021/04/08 00:48:43;;;;;;;19.35;6.88;;;1.10;99.90;;;1.80;89.72;101215.72;5018167;28;20137;-87
2021/04/08 00:51:09;;;;;;;17.65;7.85;;;1.10;99.90;;;1.76;89.80;101211.91;5015073;28;20029;-84
2021/04/08 00:53:36;;;;;;;21.25;8.98;;;1.00;99.90;;;1.71;89.90;101214.66;5000201;28;20026;-85
2021/04/08 00:56:03;;;;;;;21.95;7.25;;;1.00;99.90;;;1.72;89.82;101221.81;4999489;28;20425;-86
2021/04/08 00:58:33;;;;;;;15.95;7.28;;;1.00;99.90;;;1.75;89.65;101218.50;5008498;28;20042;-87
2021/04/08 01:01:00;;;;;;;18.38;7.80;;;0.90;99.90;;;1.72;89.80;101219.06;5002309;28;20132;-85
2021/04/08 01:03:26;;;;;;;18.58;8.82;;;0.90;99.90;;;1.66;90.12;101210.03;5034797;28;20034;-88
2021/04/08 01:05:52;;;;;;;16.50;8.15;;;0.90;99.90;;;1.61;90.53;101215.56;5025129;28;20498;-85
2021/04/08 01:08:19;;;;;;;17.38;7.30;;;0.90;99.90;;;1.66;90.06;101225.72;5007527;28;20034;-86
2021/04/08 01:10:46;;;;;;;20.88;7.82;;;0.80;99.90;;;1.62;90.26;101224.63;5033967;28;20120;-86
2021/04/08 01:13:19;;;;;;;26.75;8.80;;;0.80;99.90;;;1.59;90.48;101226.03;5025995;28;20469;-85
2021/04/08 01:15:46;;;;;;;24.40;9.15;;;0.80;99.90;;;1.52;91.03;101220.84;4996241;28;20113;-88
2021/04/08 01:18:34;;;;;;;19.25;8.98;;;0.70;99.90;;;1.59;90.70;101229.63;5003687;28;20022;-86
2021/04/08 01:21:36;;;;;;;15.68;8.02;;;0.80;99.90;;;1.47;91.24;101229.16;4997585;28;20113;-87
2021/04/08 01:24:19;;;;;;;24.63;9.10;;;0.70;99.90;;;1.45;91.65;101233.25;4998090;28;20050;-85
2021/04/08 01:27:03;;;;;;;22.65;7.97;;;0.70;99.90;;;1.50;91.38;101236.84;5008241;28;20026;-87
2021/04/08 01:30:08;;;;;;;21.80;9.10;;;0.70;99.90;;;1.56;91.62;101243.13;5017429;28;20034;-85
2021/04/08 01:32:44;;;;;;;20.27;8.57;;;0.70;99.90;;;1.52;91.60;101239.28;5012969;28;20021;-86
2021/04/08 01:35:14;;;;;;;20.42;8.80;;;0.80;99.90;;;1.51;91.77;101245.88;5000460;28;20035;-86
2021/04/08 01:38:20;;;;;;;22.88;8.20;;;0.70;99.90;;;1.39;91.80;101235.22;5033795;28;20030;-87
2021/04/08 01:40:49;;;;;;;28.83;9.70;;;0.70;99.90;;;1.41;92.12;101232.22;5012553;28;20031;-87
2021/04/08 01:43:24;;;;;;;21.17;7.78;;;0.70;99.90;;;1.42;92.07;101231.06;5003352;28;20033;-87
2021/04/08 01:45:57;;;;;;;21.45;9.13;;;0.70;99.90;;;1.45;91.96;101245.09;5015940;28;20398;-86
2021/04/08 01:48:25;;;;;;;14.60;7.38;;;0.70;99.90;;;1.37;91.37;101231.94;5015061;28;20026;-85
2021/04/08 01:51:00;;;;;;;21.95;8.52;;;0.70;99.90;;;1.49;91.55;101239.84;5033925;28;20038;-87
2021/04/08 01:53:28;;;;;;;15.53;7.40;;;0.60;99.90;;;1.44;91.42;101243.47;5018214;28;20128;-85
2021/04/08 01:56:01;;;;;;;21.75;8.02;;;0.60;99.90;;;1.41;91.63;101234.97;5018245;28;20041;-88
2021/04/08 01:58:29;;;;;;;18.23;8.73;;;0.60;99.90;;;1.47;91.62;101242.91;5032623;28;20441;-86
2021/04/08 02:00:57;;;;;;;15.63;8.13;;;0.70;99.90;;;1.47;91.60;101244.84;5018142;28;20057;-85
2021/04/08 02:03:25;;;;;;;23.85;9.07;;;0.60;99.90;;;1.42;92.03;101240.16;5017557;28;20113;-86
2021/04/08 02:05:54;;;;;;;18.13;7.60;;;0.70;99.90;;;1.43;92.23;101247.31;5016969;28;20025;-86
2021/04/08 02:08:23;;;;;;;21.73;8.73;;;0.60;99.90;;;1.45;91.95;101238.75;5023817;28;20046;-87
2021/04/08 02:10:50;;;;;;;14.88;7.50;;;0.60;99.90;;;1.51;91.58;101249.47;5013771;28;20117;-86
2021/04/08 02:13:18;;;;;;;19.08;8.80;;;0.60;99.90;;;1.38;92.50;101244.59;5013492;28;20038;-86
2021/04/08 02:15:47;;;;;;;14.85;8.82;;;0.70;99.90;;;1.48;91.88;101243.72;5013453;28;20040;-85
2021/04/08 02:18:17;;;;;;;18.70;7.80;;;0.70;99.90;;;1.50;91.74;101245.09;5002517;28;20037;-85
2021/04/08 02:20:49;;;;;;;18.58;8.30;;;0.70;99.90;;;1.55;91.70;101260.75;4976027;28;20027;-85
2021/04/08 02:23:23;;;;;;;14.68;7.95;;;0.70;99.90;;;1.47;91.49;101247.59;4992423;28;20069;-86
2021/04/08 02:25:52;;;;;;;17.45;7.97;;;0.70;99.90;;;1.40;91.70;101247.91;5001111;28;20155;-86
2021/04/08 02:28:25;;;;;;;25.98;9.57;;;0.70;99.90;;;1.43;91.82;101241.00;5021782;28;20027;-86
2021/04/08 02:30:54;;;;;;;17.30;8.05;;;0.60;99.90;;;1.49;91.64;101239.84;4996844;28;20085;-87
2021/04/08 02:33:30;;;;;;;20.75;8.70;;;0.70;99.90;;;1.35;91.55;101249.84;4996251;28;20375;-86
2021/04/08 02:36:01;;;;;;;20.85;8.20;;;0.60;99.90;;;1.39;91.65;101246.25;5019761;28;20026;-86
2021/04/08 02:38:37;;;;;;;24.48;8.35;;;0.60;99.90;;;1.30;92.17;101252.59;4999199;28;20034;-88
2021/04/08 02:41:08;;;;;;;24.63;8.45;;;0.60;99.90;;;1.27;92.60;101253.19;4994850;28;20102;-87
2021/04/08 02:43:36;;;;;;;16.33;8.63;;;0.60;99.90;;;1.40;92.51;101247.91;5002897;28;20037;-87
2021/04/08 02:46:04;;;;;;;23.75;9.10;;;0.70;99.90;;;1.48;91.92;101257.47;5014206;28;20023;-88
2021/04/08 02:48:34;;;;;;;19.80;8.30;;;0.70;99.90;;;1.42;91.99;101261.34;5011901;28;20026;-87
2021/04/08 02:51:23;;;;;;;21.25;8.65;;;0.70;99.90;;;1.42;91.86;101259.44;4997829;28;20050;-87
2021/04/08 02:54:07;;;;;;;17.20;7.88;;;0.70;99.90;;;1.47;91.35;101261.34;5012415;28;20031;-86
2021/04/08 02:56:45;;;;;;;22.23;8.68;;;0.60;99.90;;;1.46;90.94;101256.94;5012199;28;20034;-88
2021/04/08 02:59:30;;;;;;;17.45;7.80;;;0.60;99.90;;;1.26;92.47;101263.34;4996288;28;20034;-86
2021/04/08 03:02:09;;;;;;;22.70;9.02;;;0.60;99.90;;;1.37;91.66;101266.91;5011833;28;20030;-88
2021/04/08 03:04:45;;;;;;;17.20;7.68;;;0.60;99.90;;;1.23;92.17;101266.66;5016694;28;20050;-86
2021/04/08 03:07:16;;;;;;;21.88;8.50;;;0.60;99.90;;;1.27;92.07;101262.25;5011453;28;20093;-86
2021/04/08 03:09:44;;;;;;;21.75;8.65;;;0.60;99.90;;;1.22;92.45;101267.78;5014838;28;20026;-87
2021/04/08 03:12:15;;;;;;;17.65;8.20;;;0.50;99.90;;;1.21;92.24;101257.06;5030716;28;20486;-86
2021/04/08 03:14:53;;;;;;;17.35;7.85;;;0.50;99.90;;;1.24;92.01;101265.56;5016770;28;20037;-87
2021/04/08 03:17:28;;;;;;;18.08;7.85;;;0.40;99.90;;;1.16;92.13;101266.16;5016128;28;20076;-85
2021/04/08 03:19:59;;;;;;;23.20;8.65;;;0.40;99.90;;;1.06;93.01;101263.41;5032392;28;20034;-87
2021/04/08 03:22:28;;;;;;;18.35;8.20;;;0.40;99.90;;;1.13;92.30;101258.44;5032489;28;20080;-85
2021/04/08 03:24:57;;;;;;;18.75;9.18;;;0.40;99.90;;;1.06;92.74;101264.25;5031439;28;20030;-86
2021/04/08 03:27:29;;;;;;;19.52;8.15;;;0.40;99.90;;;1.13;92.32;101271.38;5026597;28;20030;-86
2021/04/08 03:29:58;;;;;;;21.52;9.30;;;0.40;99.90;;;1.04;92.61;101280.22;5012089;28;20034;-86
2021/04/08 03:32:25;;;;;;;26.05;8.95;;;0.30;99.90;;;1.08;92.62;101277.75;5012135;28;20031;-84
2021/04/08 03:34:54;;;;;;;23.00;9.20;;;0.30;99.90;;;1.02;92.13;101273.34;5012224;28;20308;-86
2021/04/08 03:37:21;;;;;;;19.42;7.97;;;0.30;99.90;;;1.02;92.52;101278.88;4997255;28;20045;-85
2021/04/08 03:39:47;;;;;;;21.25;9.13;;;0.20;99.90;;;0.93;92.91;101288.78;4994058;28;20030;-86
2021/04/08 03:42:15;;;;;;;17.70;8.45;;;0.20;99.90;;;0.96;93.04;101282.72;5010816;28;20026;-85
2021/04/08 03:44:42;;;;;;;26.25;8.45;;;0.20;99.90;;;0.99;92.75;101280.25;5010762;28;20049;-85
2021/04/08 03:47:10;;;;;;;25.77;10.00;;;0.20;99.90;;;0.97;93.14;101285.19;5010433;28;20045;-86
2021/04/08 03:49:36;;;;;;;22.40;9.52;;;0.20;99.90;;;0.97;93.22;101284.38;4995156;28;20656;-87
2021/04/08 03:52:07;;;;;;;19.58;9.13;;;0.20;99.90;;;0.95;93.29;101278.31;5010137;28;20068;-86
2021/04/08 03:54:36;;;;;;;22.95;10.20;;;0.30;99.90;;;1.00;93.06;101281.88;5005256;28;20027;-87
2021/04/08 03:57:10;;;;;;;23.25;8.88;;;0.20;99.90;;;0.99;92.79;101283.00;5010438;28;20509;-86
2021/04/08 03:59:40;;;;;;;22.00;9.15;;;0.20;99.90;;;1.00;93.02;101289.31;4998568;28;20550;-85
2021/04/08 04:02:07;;;;;;;24.42;9.20;;;0.20;99.90;;;0.99;92.83;101294.00;5024985;28;20576;-86
2021/04/08 04:04:36;;;;;;;28.52;9.20;;;0.20;99.90;;;0.96;92.93;101285.50;5012382;28;20383;-87
2021/04/08 04:07:03;;;;;;;22.30;9.05;;;0.20;99.90;;;1.05;92.83;101295.63;5010425;28;20109;-88
2021/04/08 04:09:29;;;;;;;18.85;8.23;;;0.20;99.90;;;1.00;92.47;101287.38;5009962;28;20030;-87
2021/04/08 04:11:57;;;;;;;17.42;7.68;;;0.20;99.90;;;0.95;92.84;101292.91;5017547;28;20501;-87
2021/04/08 04:14:30;;;;;;;26.90;8.75;;;0.20;99.90;;;0.99;93.03;101294.00;5021214;28;20026;-85
2021/04/08 04:17:23;;;;;;;23.20;8.77;;;0.20;99.90;;;0.95;93.10;101294.84;5030062;28;20027;-86
2021/04/08 04:19:49;;;;;;;20.83;8.93;;;0.20;99.90;;;0.99;92.43;101295.94;5014810;28;20026;-85
2021/04/08 04:22:15;;;;;;;21.67;8.13;;;0.20;99.90;;;0.99;92.45;101295.94;5027268;28;20444;-84
2021/04/08 04:24:42;;;;;;;18.02;7.70;;;0.10;99.90;;;1.01;92.36;101307.47;5018021;28;20057;-85
2021/04/08 04:27:08;;;;;;;18.08;7.65;;;0.10;99.90;;;0.85;92.55;101294.84;5033459;28;20045;-85
2021/04/08 04:29:38;;;;;;;18.88;7.45;;;0.20;99.90;;;0.86;92.57;101302.00;5012169;28;20026;-84
2021/04/08 04:32:43;;;;;;;22.80;8.00;;;0.10;99.90;;;0.83;92.90;101305.31;5012782;28;20037;-86
2021/04/08 04:35:19;;;;;;;17.90;7.72;;;0.10;99.90;;;0.75;92.88;101297.59;5029548;28;20312;-85
2021/04/08 04:37:45;;;;;;;;;;;0.00;99.90;;;0.83;92.57;101308.91;5017392;28;20493;-86
2021/04/08 04:40:20;;;;;;;19.52;7.25;;;0.10;99.90;;;0.78;92.62;101305.31;5038480;28;19897;-85
2021/04/08 04:46:48;;;;;;;;;;;;;;;;;;;;;
2021/04/08 04:49:28;;;;;;;21.92;7.70;;;0.10;99.90;;;0.85;92.91;101309.44;5018644;28;20057;-87
2021/04/08 04:51:55;;;;;;;16.27;6.75;;;0.10;99.90;;;1.02;92.47;101318.22;5016957;28;20013;-87
2021/04/08 04:54:58;;;;;;;16.88;7.10;;;0.20;99.90;;;0.99;92.10;101304.19;5019332;28;20026;-85
2021/04/08 05:01:30;;;;;;;23.85;7.07;;;0.30;99.90;;;0.94;92.42;101309.69;4999882;28;20041;-86
2021/04/08 05:03:57;;;;;;;24.20;8.35;;;0.30;99.90;;;0.98;92.41;101310.78;4997124;28;20050;-85
2021/04/08 05:06:26;;;;;;;23.30;8.10;;;0.20;99.90;;;0.96;92.33;101310.25;4997079;28;20617;-87
2021/04/08 05:09:16;;;;;;;24.95;8.65;;;0.30;99.90;;;0.99;92.91;101301.44;5012373;28;20037;-86
2021/04/08 05:11:42;;;;;;;19.95;7.63;;;0.40;99.90;;;1.24;92.20;101308.78;5032442;28;20056;-84
2021/04/08 05:14:18;;;;;;;23.88;6.70;;;0.40;99.90;;;1.31;91.99;101321.16;5020841;28;20482;-85
2021/04/08 05:16:44;;;;;;;21.77;8.15;;;0.50;99.90;;;1.40;91.51;101313.97;5026017;28;20117;-86
2021/04/08 05:19:10;;;;;;;15.10;6.55;;;0.60;99.90;;;1.47;91.41;101321.91;4999596;28;20080;-86
2021/04/08 05:21:48;;;;;;;19.60;7.00;;;0.60;99.90;;;1.54;91.27;101319.69;5021916;28;20031;-86
2021/04/08 05:24:14;;;;;;;22.33;8.73;;;0.80;99.90;;;1.66;91.10;101322.09;5011818;28;20142;-87
2021/04/08 05:26:41;;;;;;;14.65;6.57;;;0.80;99.90;;;1.74;90.94;101333.34;4998053;28;20034;-85
2021/04/08 05:29:10;;;;;;;12.55;6.30;;;0.90;99.90;;;1.80;90.49;101339.66;5026600;28;20036;-87
2021/04/08 05:31:39;;;;;;;20.25;6.47;;;0.90;99.90;;;1.78;90.52;101341.88;5021884;28;20681;-85
2021/04/08 05:34:05;;;;;;;18.40;6.43;;;0.90;99.90;;;1.83;90.42;101326.13;5031667;28;20094;-87
2021/04/08 05:36:42;;;;;;;;;;;;;;;;;;;;;
2021/04/08 05:39:11;;;;;;;17.10;6.15;;;1.10;99.90;;;1.91;90.38;101332.97;5015517;28;20581;-87
2021/04/08 05:41:37;;;;;;;18.75;6.30;;;1.10;99.90;;;2.05;89.85;101343.13;5006601;28;20057;-88
2021/04/08 05:44:04;;;;;;;20.60;6.28;;;1.10;99.90;;;2.00;89.97;101348.63;5038871;28;20026;-88
2021/04/08 05:46:31;;;;;;;18.00;5.68;;;1.20;99.90;;;2.03;89.05;101342.56;5037125;28;20520;-87
2021/04/08 05:49:02;;;;;;;18.85;6.00;;;1.30;99.90;;;2.14;89.12;101351.59;5016674;28;20160;-89
2021/04/08 05:51:28;;;;;;;16.25;5.75;;;1.30;99.90;;;2.24;88.99;101357.03;5012463;28;20022;-85
2021/04/08 05:53:55;;;;;;;14.63;5.38;;;1.30;99.90;;;2.24;88.32;101353.47;5019469;28;20082;-87
2021/04/08 05:56:21;;;;;;;19.95;6.00;;;1.40;99.90;;;2.26;88.34;101363.09;4999227;28;20144;-88
2021/04/08 05:58:47;;;;;;;19.52;5.30;;;1.50;99.90;;;2.30;88.25;101369.69;5041083;23;20041;-82
2021/04/08 06:01:13;;;;;;;21.58;5.60;;;1.50;99.90;;;2.41;87.58;101367.69;5050798;28;20029;-84
2021/04/08 06:03:39;;;;;;;17.02;5.20;;;1.50;99.90;;;2.42;87.44;101369.31;5050888;28;20033;-83
2021/04/08 06:06:05;;;;;;;13.40;5.45;;;1.50;99.90;;;2.46;87.97;101371.22;5052052;28;20096;-85
2021/04/08 06:08:31;;;;;;;15.23;5.63;;;1.60;99.90;;;2.46;87.82;101373.97;5046842;28;20021;-82
2021/04/08 06:10:57;;;;;;;15.25;4.78;;;1.60;99.90;;;2.53;87.45;101379.16;5034304;28;20034;-83
2021/04/08 06:13:23;;;;;;;17.58;6.25;;;1.70;99.90;;;2.66;87.16;101378.53;5050583;28;20021;-81
2021/04/08 06:15:50;;;;;;;16.38;5.20;;;1.70;99.90;;;2.76;86.83;101372.91;5032497;28;20110;-81
2021/04/08 06:18:18;;;;;;;12.05;5.10;;;1.80;99.90;;;2.83;86.88;101369.81;5031814;28;20040;-83
2021/04/08 06:20:44;;;;;;;20.48;5.32;;;1.90;99.90;;;2.99;85.96;101371.31;5031871;28;20049;-85
2021/04/08 06:23:10;;;;;;;16.65;6.75;;;2.00;99.90;;;3.00;85.34;101372.97;5022183;28;20029;-86
2021/04/08 06:25:36;;;;;;;16.23;5.00;;;2.10;99.90;;;3.14;84.97;101376.72;5019182;28;20029;-85
2021/04/08 06:28:02;;;;;;;17.42;5.45;;;2.10;99.90;;;3.14;85.16;101379.47;5019446;28;20032;-86
2021/04/08 06:30:29;;;;;;;14.27;5.05;;;2.20;99.90;;;3.17;84.88;101373.38;5018282;28;20328;-82
2021/04/08 06:32:55;;;;;;;19.55;5.43;;;2.30;99.90;;;3.34;84.08;101376.47;5035403;28;20068;-81
2021/04/08 06:35:23;;;;;;;15.90;6.35;;;2.40;99.90;;;3.45;84.14;101383.56;5018715;28;20026;-84
2021/04/08 06:37:53;;;;;;;20.20;5.10;;;2.50;99.90;;;3.64;83.17;101383.63;5019000;28;20446;-82
2021/04/08 06:40:23;;;;;;;13.15;4.60;;;2.60;99.90;;;3.75;82.81;101379.63;5016877;28;20029;-80
2021/04/08 06:43:01;;;;;;;13.75;4.57;;;2.70;99.90;;;3.72;82.59;101385.75;5032972;28;20033;-85
2021/04/08 06:45:34;;;;;;;15.02;5.10;;;2.80;99.90;;;3.68;82.85;101379.97;5017550;28;20026;-81
2021/04/08 06:48:43;;;;;;;9.57;4.93;;;2.80;99.90;;;3.90;81.76;101384.97;5007142;28;20029;-79
2021/04/08 06:51:19;;;;;;;16.10;4.70;;;2.90;99.90;;;4.06;81.22;101399.41;4998276;28;20037;-82
2021/04/08 06:53:49;;;;;;;11.77;4.60;;;3.00;99.90;;;4.11;80.48;101388.28;5019926;28;20362;-84
2021/04/08 06:56:16;;;;;;;11.88;4.78;;;3.10;99.90;;;4.02;81.38;101387.28;5016974;28;20048;-85
2021/04/08 06:58:42;;;;;;;18.20;5.18;;;3.20;99.90;;;4.14;80.71;101388.50;5033855;28;20030;-83
2021/04/08 07:01:11;;;;;;;12.10;4.85;;;3.20;99.90;;;4.18;79.89;101397.84;5016995;28;20092;-85
2021/04/08 07:03:40;;;;;;;15.48;4.85;;;3.30;99.90;;;4.28;80.21;101401.59;5016964;28;20088;-84
2021/04/08 07:06:06;;;;;;;9.95;4.15;;;3.30;99.90;;;4.38;79.58;101396.75;5018140;28;20030;-82
2021/04/08 07:08:34;;;;;;;16.25;4.78;;;3.40;99.90;;;4.43;78.89;101401.38;5018496;28;20051;-80
2021/04/08 07:11:01;;;;;;;13.77;4.45;;;3.50;99.90;;;4.49;78.41;101389.94;5022152;28;20018;-84
2021/04/08 07:13:33;;;;;;;8.50;4.70;;;3.50;99.90;;;4.69;78.01;101400.69;5018956;28;20026;-83
2021/04/08 07:16:00;;;;;;;13.77;5.13;;;3.60;99.90;;;4.62;78.82;101399.44;5032735;28;20154;-83
2021/04/08 07:18:28;;;;;;;9.98;4.53;;;3.70;99.90;;;4.88;78.13;101400.66;5018517;28;20037;-82
2021/04/08 07:20:57;;;;;;;18.48;4.88;;;3.80;99.90;;;4.99;76.32;101401.31;5033732;28;20034;-85
2021/04/08 07:23:24;;;;;;;16.50;5.55;;;3.90;99.90;;;4.98;75.87;101406.03;5034117;28;20073;-83
2021/04/08 07:26:11;;;;;;;13.43;5.38;;;4.10;99.90;;;4.89;75.74;101404.25;5017738;28;20067;-83
2021/04/08 07:28:42;;;;;;;16.15;5.38;;;4.10;99.90;;;5.06;75.90;101402.56;5016387;28;20040;-83
2021/04/08 07:31:32;;;;;;;14.02;5.50;;;4.20;99.90;;;5.41;75.21;101406.66;5016764;28;20036;-85
2021/04/08 07:34:00;;;;;;;13.43;5.10;;;4.40;99.90;;;5.60;73.03;101390.78;5015979;28;20029;-80
2021/04/08 07:36:31;;;;;;;14.57;5.30;;;4.50;99.90;;;5.79;73.08;101399.81;5016119;28;20030;-82
2021/04/08 07:38:59;;;;;;;18.48;5.22;;;4.70;99.90;;;5.99;71.86;101403.31;5014892;28;20048;-82
2021/04/08 07:41:35;;;;;;;13.60;5.10;;;4.90;99.90;;;6.15;71.94;101408.25;5031795;28;20034;-83
2021/04/08 07:44:12;;;;;;;9.07;4.53;;;5.10;99.90;;;6.61;70.59;101412.78;5032494;28;20030;-83
2021/04/08 07:46:42;;;;;;;15.40;4.70;;;5.40;99.90;;;6.57;67.89;101414.53;5032642;28;20033;-82
2021/04/08 07:49:33;;;;;;;18.17;5.10;;;5.50;99.90;;;6.68;68.62;101418.69;5032623;28;20486;-84
2021/04/08 07:52:49;;;;;;;18.73;5.65;;;5.60;99.90;;;6.39;67.59;101413.53;5032866;28;20434;-83
2021/04/08 07:55:23;;;;;;;11.25;4.30;;;5.50;99.90;;;6.44;68.13;101413.44;5004047;28;20049;-83
2021/04/08 07:58:16;;;;;;;11.88;4.93;;;5.60;99.90;;;6.51;67.67;101424.09;5017008;28;20080;-84
2021/04/08 08:00:48;;;;;;;10.45;4.13;;;5.60;99.90;;;6.63;66.65;101419.66;5002444;28;20033;-84
2021/04/08 08:03:23;;;;;;;13.15;5.13;;;5.60;99.90;;;6.72;67.66;101411.38;5018904;28;20025;-85
2021/04/08 08:05:51;;;;;;;14.10;4.85;;;5.70;99.90;;;6.62;66.77;101420.78;5018966;28;20033;-84
2021/04/08 08:08:25;;;;;;;16.77;5.70;;;5.70;99.90;;;6.66;66.15;101421.78;5033230;28;20029;-85
2021/04/08 08:11:07;;;;;;;11.55;5.30;;;5.70;99.90;;;6.73;66.42;101410.25;5024383;28;20030;-82
2021/04/08 08:13:39;;;;;;;13.82;5.35;;;5.80;99.90;;;6.99;67.00;101416.84;5033496;28;20040;-79
2021/04/08 08:16:07;;;;;;;10.68;4.82;;;5.90;99.90;;;6.99;64.37;101425.19;5041120;28;20022;-81
2021/04/08 08:18:39;;;;;;;12.52;4.47;;;6.00;99.90;;;6.92;62.45;101415.63;5023892;28;20026;-82
2021/04/08 08:21:17;;;;;;;11.57;4.65;;;6.00;99.90;;;6.94;62.65;101418.91;5022686;28;20026;-81
2021/04/08 08:23:56;;;;;;;12.05;5.00;;;6.00;99.90;;;7.12;63.12;101418.75;5038696;28;20033;-82
2021/04/08 08:26:39;;;;;;;8.85;4.90;;;6.20;99.90;;;7.23;60.92;101424.84;5034529;28;20037;-82
2021/04/08 08:29:26;;;;;;;9.90;4.47;;;6.30;99.90;;;7.01;62.65;101422.06;5030858;28;20056;-82
2021/04/08 08:31:59;;;;;;;15.15;5.63;;;6.30;99.90;;;7.06;63.46;101427.50;5008639;28;20058;-82
2021/04/08 08:34:31;;;;;;;13.80;6.00;;;6.40;99.90;;;7.69;61.61;101425.28;5016643;28;20036;-80
2021/04/08 08:37:11;;;;;;;9.75;5.43;;;6.70;99.90;;;7.51;61.63;101419.94;5016179;28;20120;-81
2021/04/08 08:39:45;;;;;;;12.73;5.35;;;6.70;99.90;;;7.75;60.17;101429.56;5017984;28;20037;-81
2021/04/08 08:42:21;;;;;;;11.13;5.13;;;6.80;99.90;;;8.12;59.52;101425.44;5017881;28;20029;-82
2021/04/08 08:44:48;;;;;;;9.73;4.22;;;7.10;99.90;;;8.83;55.61;101431.66;5016321;28;20030;-82
2021/04/08 08:47:31;;;;;;;7.60;4.40;;;7.60;99.90;;;9.25;53.44;101425.19;5017904;28;20045;-83
2021/04/08 08:50:19;;;;;;;10.57;4.25;;;8.00;99.90;;;9.29;51.65;101430.94;5015268;28;20045;-83
2021/04/08 08:52:51;;;;;;;11.10;4.50;;;8.20;99.90;;;9.67;50.82;101426.25;5014122;28;20022;-82
2021/04/08 08:55:23;;;;;;;10.82;4.60;;;8.40;99.90;;;10.11;51.84;101426.91;5015237;28;20096;-82
2021/04/08 08:57:57;;;;;;;8.45;4.03;;;8.70;99.90;;;10.84;50.58;101437.44;5017866;28;20028;-83
2021/04/08 09:00:30;;;;;;;14.65;5.93;;;9.30;99.90;;;11.25;48.99;101433.78;5019365;28;20053;-81
2021/04/08 09:02:58;;;;;;;9.27;4.45;;;9.80;97.70;;;11.41;48.47;101436.75;5016007;28;20116;-82
2021/04/08 09:05:43;;;;;;;11.88;4.03;;;10.00;94.90;;;11.25;46.11;101432.97;5017205;28;20402;-82
2021/04/08 09:08:17;;;;;;;9.07;3.40;;;10.00;86.90;;;10.32;47.16;101438.94;5017791;28;20090;-82
2021/04/08 09:10:46;;;;;;;12.30;3.63;;;9.60;83.10;;;10.36;47.90;101437.13;5016286;28;20018;-82
2021/04/08 09:13:13;;;;;;;7.97;3.63;;;9.50;87.90;;;11.35;45.72;101432.53;5016733;28;20030;-82
2021/04/08 09:15:41;;;;;;;10.07;5.20;;;10.00;85.20;;;11.83;46.04;101437.47;5016672;28;20141;-83
2021/04/08 09:18:09;;;;;;;8.70;3.65;;;10.30;86.40;;;11.83;44.69;101441.09;5019595;28;20034;-83
2021/04/08 09:20:38;;;;;;;8.35;3.47;;;10.50;80.70;;;11.81;44.19;101429.44;5016426;28;20628;-83
2021/04/08 09:23:12;;;;;;;9.88;3.90;;;10.60;78.60;;;11.37;44.49;101422.63;5014575;28;20500;-82
2021/04/08 09:25:52;;;;;;;7.55;3.38;;;10.20;77.10;;;10.04;47.38;101421.84;5017534;28;20030;-84
2021/04/08 09:28:19;;;;;;;6.15;3.13;;;9.50;80.30;;;9.24;47.62;101425.53;5017514;28;20022;-82
2021/04/08 09:33:42;;;;;;;7.50;3.13;;;8.20;85.50;;;8.11;50.79;101423.78;5009719;28;20076;-83
2021/04/08 09:36:28;;;;;;;8.10;3.30;;;7.50;91.90;;;7.69;52.63;101422.50;5017166;28;20041;-82
2021/04/08 09:38:54;;;;;;;;;;;7.10;97.70;;;7.70;51.63;101417.75;5031025;28;20029;-82
2021/04/08 09:41:51;;;;;;;5.28;1.60;;;6.80;96.30;;;7.99;48.37;101420.00;5017143;28;19916;-83
2021/04/08 09:44:20;;;;;;;5.05;1.85;;;6.90;91.20;;;7.94;46.25;101423.72;5015422;28;20034;-84
2021/04/08 09:47:00;;;;;;;5.38;1.17;;;6.90;82.60;;;8.08;43.80;101421.66;5031607;28;20125;-83
2021/04/08 09:49:41;;;;;;;7.05;1.45;;;7.00;75.00;;;8.26;42.68;101409.41;5015602;28;20022;-83
2021/04/08 09:52:09;;;;;;;2.70;1.55;;;7.30;72.90;;;8.83;43.68;101412.16;5014639;28;20117;-82
2021/04/08 09:55:02;;;;;;;4.65;2.20;;;7.60;75.80;;;9.70;42.06;101416.38;5015345;28;20030;-82
2021/04/08 09:57:46;;;;;;;3.72;1.75;;;8.20;72.10;;;10.25;40.95;101414.34;5031234;28;20084;-84
2021/04/08 10:00:16;;;;;;;6.93;2.33;;;8.80;70.40;;;9.47;41.21;101415.81;5016249;28;20034;-81
2021/04/08 10:03:29;;;;;;;3.88;1.40;;;8.70;67.30;;;9.29;40.57;101412.25;5031512;28;20041;-82
2021/04/08 10:05:56;;;;;;;4.28;1.92;;;8.60;65.20;;;10.19;39.67;101409.28;5006136;28;20045;-82
2021/04/08 10:08:24;;;;;;;4.60;1.80;;;9.00;66.20;;;10.02;38.75;101408.19;5030612;28;20409;-82
2021/04/08 10:10:51;;;;;;;4.60;1.70;;;9.00;63.00;;;9.91;39.48;101408.94;5016844;28;20022;-83
2021/04/08 10:13:33;;;;;;;4.32;1.63;;;8.90;64.40;;;9.51;40.23;101406.44;5031433;28;20396;-81
2021/04/08 10:16:10;;;;;;;3.00;1.00;;;8.50;67.30;;;9.30;40.14;101413.06;5016599;28;20022;-82
2021/04/08 10:18:40;;;;;;;4.45;1.08;;;8.30;63.70;;;9.12;39.81;101400.31;5022514;28;20370;-82
2021/04/08 10:21:20;;;;;;;4.65;1.60;;;8.20;64.40;;;8.44;40.26;101411.09;5024163;28;20030;-82
2021/04/08 10:23:50;;;;;;;6.60;2.08;;;7.70;63.90;;;8.39;43.74;101421.59;5026831;28;20093;-83
2021/04/08 10:26:33;;;;;;;8.15;2.30;;;7.60;69.70;;;7.89;45.64;101409.97;5036817;28;20017;-81
2021/04/08 10:29:04;;;;;;;4.57;2.28;;;7.10;74.00;;;8.08;44.70;101413.31;5028388;28;20042;-82
2021/04/08 10:31:36;;;;;;;9.45;3.35;;;7.10;74.40;;;8.13;44.35;101403.97;5023075;28;20056;-82
2021/04/08 10:34:20;;;;;;;5.90;2.30;;;7.20;73.40;;;8.23;44.78;101412.84;5025768;28;20026;-84
2021/04/08 10:36:55;;;;;;;7.57;2.30;;;7.30;74.00;;;8.56;42.63;101398.53;5016575;28;20032;-85
2021/04/08 10:39:35;;;;;;;5.95;2.42;;;7.50;71.30;;;8.73;41.76;101401.31;5017093;28;20060;-83
2021/04/08 10:42:12;;;;;;;6.50;2.15;;;7.80;68.90;;;8.86;43.61;101390.00;5017448;28;20038;-87
2021/04/08 10:44:40;;;;;;;4.65;2.25;;;7.80;71.10;;;9.38;40.44;101393.53;5015508;28;20052;-86
2021/04/08 10:47:06;;;;;;;6.25;2.10;;;8.20;67.40;;;9.96;38.92;101400.34;5017263;28;20398;-85
2021/04/08 10:49:52;;;;;;;3.30;1.95;;;8.70;65.50;;;9.86;40.04;101395.97;5016707;28;20026;-84
2021/04/08 10:52:24;;;;;;;4.35;2.25;;;8.80;64.90;;;9.40;38.45;101391.25;5016520;28;20037;-81
2021/04/08 10:55:00;;;;;;;6.88;3.00;;;8.60;62.00;;;8.80;40.13;101385.75;5017278;28;20030;-83
2021/04/08 10:57:29;;;;;;;7.20;2.70;;;8.10;63.30;;;8.62;41.51;101392.47;5022099;28;20026;-86